Time;durP1;ratioP1;P1;durP2;ratioP2;P2;SDS_P1;SDS_P2;PMS_P1;PMS_P2;Temp;Humidity;BMP_temperature;BMP_pressure;BME280_temperature;BME280_humidity;BME280_pressure;Samples;Min_cycle;Max_cycle;Signal;HPM_P1;HPM_P2
2022/04/02 00:01:12;;;;;;;3.00;2.03;;;;;;;1.86;57.60;101581.41;5028950;28;20237;-76
2022/04/02 00:03:37;;;;;;;2.10;1.80;;;;;;;1.81;57.84;101587.81;5028813;28;20234;-76
2022/04/02 00:06:03;;;;;;;2.20;1.60;;;;;;;1.81;58.04;101582.78;5020886;28;20221;-75
2022/04/02 00:08:28;;;;;;;2.63;1.70;;;;;;;1.83;57.69;101583.72;5021483;28;20210;-76
2022/04/02 00:10:53;;;;;;;3.03;1.93;;;;;;;1.81;58.41;101580.25;4996271;28;20206;-76
2022/04/02 00:13:19;;;;;;;4.47;1.93;;;;;;;1.83;58.48;101581.22;5009168;28;20215;-76
2022/04/02 00:15:45;;;;;;;3.73;1.70;;;;;;;1.80;58.45;101578.50;5025100;28;20190;-76
2022/04/02 00:18:10;;;;;;;2.97;1.80;;;;;;;1.80;57.98;101583.56;5014831;28;20226;-76
2022/04/02 00:20:35;;;;;;;4.40;1.93;;;;;;;1.82;58.67;101582.00;5032211;28;20190;-76
2022/04/02 00:25:44;;;;;;;2.53;2.00;;;;;;;1.73;58.65;101583.91;5014628;28;20179;-76
2022/04/02 00:28:10;;;;;;;3.53;1.80;;;;;;;1.71;58.48;101582.94;5000717;28;20210;-75
2022/04/02 00:30:35;;;;;;;2.67;1.80;;;;;;;1.69;58.85;101581.09;4979758;28;20190;-75
2022/04/02 00:33:00;;;;;;;3.37;1.77;;;;;;;1.74;59.44;101580.59;5014740;28;20567;-76
2022/04/02 00:35:26;;;;;;;3.63;1.93;;;;;;;1.69;60.07;101576.06;5032125;28;20185;-76
2022/04/02 00:37:53;;;;;;;3.60;1.90;;;;;;;1.69;59.16;101584.47;5014253;28;20221;-76
2022/04/02 00:40:18;;;;;;;1.63;1.43;;;;;;;1.68;60.07;101587.78;5031425;28;20183;-76
2022/04/02 00:42:44;;;;;;;3.00;1.90;;;;;;;1.71;59.73;101584.59;5032118;28;20206;-76
2022/04/02 00:45:10;;;;;;;3.50;1.93;;;;;;;1.61;61.33;101587.28;5032267;28;20225;-76
2022/04/02 00:47:36;;;;;;;2.30;1.90;;;;;;;1.63;60.52;101590.75;5032214;28;20222;-76
2022/04/02 00:50:01;;;;;;;2.90;1.63;;;;;;;1.61;61.14;101588.13;4996575;28;20195;-77
2022/04/02 00:52:27;;;;;;;3.97;1.90;;;;;;;1.59;61.10;101589.69;4994752;28;20214;-76
2022/04/02 00:54:53;;;;;;;3.00;1.80;;;;;;;1.55;61.87;101594.41;5000711;28;20190;-75
2022/04/02 00:57:19;;;;;;;5.37;2.10;;;;;;;1.54;62.05;101596.09;5014167;28;20218;-75
2022/04/02 00:59:46;;;;;;;3.83;1.80;;;;;;;1.55;62.28;101595.31;5026410;28;20652;-76
2022/04/02 01:02:12;;;;;;;4.23;2.10;;;;;;;1.57;61.62;101592.88;4994392;28;20354;-76
2022/04/02 01:04:39;;;;;;;2.53;1.80;;;;;;;1.54;61.95;101598.59;4998284;28;20183;-76
2022/04/02 01:07:06;;;;;;;3.17;1.90;;;;;;;1.52;62.54;101600.13;5025544;28;20286;-76
2022/04/02 01:09:33;;;;;;;3.47;2.23;;;;;;;1.52;63.06;101600.13;4997486;28;20182;-76
2022/04/02 01:11:58;;;;;;;4.40;2.57;;;;;;;1.59;63.17;101606.47;5031513;28;20706;-77
2022/04/02 01:14:24;;;;;;;4.67;1.87;;;;;;;1.55;63.02;101607.91;5013706;28;20675;-76
2022/04/02 01:16:53;;;;;;;3.50;1.87;;;;;;;1.55;62.67;101599.47;5013640;28;20256;-76
2022/04/02 01:19:22;;;;;;;5.27;2.20;;;;;;;1.53;62.46;101603.53;5013264;28;20189;-76
2022/04/02 01:21:57;;;;;;;2.67;1.67;;;;;;;1.54;63.33;101613.75;5013540;28;20205;-76
2022/04/02 01:24:39;;;;;;;3.13;2.10;;;;;;;1.55;63.92;101612.06;5012840;28;20603;-75
2022/04/02 01:27:06;;;;;;;3.63;2.30;;;;;;;1.55;63.49;101610.44;4996222;28;20187;-76
2022/04/02 01:29:32;;;;;;;4.03;2.13;;;;;;;1.60;62.63;101609.09;5030920;28;20228;-76
2022/04/02 01:31:58;;;;;;;2.83;1.80;;;;;;;1.57;63.23;101613.06;4997082;28;20694;-76
2022/04/02 01:34:28;;;;;;;2.70;1.87;;;;;;;1.56;64.20;101608.81;5013272;28;20557;-76
2022/04/02 01:36:56;;;;;;;4.57;2.23;;;;;;;1.51;64.59;101616.06;5046283;28;20709;-76
2022/04/02 01:39:25;;;;;;;3.73;1.90;;;;;;;1.55;64.68;101607.03;5013141;28;20202;-76
2022/04/02 01:41:51;;;;;;;3.50;2.23;;;;;;;1.52;64.36;101610.22;5031114;28;20229;-76
2022/04/02 01:44:21;;;;;;;4.47;1.80;;;;;;;1.54;64.53;101610.34;4996465;28;20242;-76
2022/04/02 01:46:47;;;;;;;4.00;2.17;;;;;;;1.53;65.09;101611.13;5011379;28;20194;-76
2022/04/02 01:49:12;;;;;;;3.73;2.77;;;;;;;1.49;65.81;101609.16;5010343;28;20237;-76
2022/04/02 01:51:38;;;;;;;5.10;2.47;;;;;;;1.47;66.09;101606.53;5013076;28;20874;-76
2022/04/02 01:54:08;;;;;;;3.70;2.33;;;;;;;1.47;66.33;101603.16;5013153;28;20606;-74
2022/04/02 01:56:34;;;;;;;5.23;2.50;;;;;;;1.49;66.27;101615.09;5011138;28;20186;-74
2022/04/02 01:59:02;;;;;;;5.03;2.50;;;;;;;1.49;66.50;101610.03;4995762;28;20203;-74
2022/04/02 02:01:29;;;;;;;3.97;2.20;;;;;;;1.49;66.50;101615.09;4993116;28;20185;-76
2022/04/02 02:03:55;;;;;;;3.57;2.47;;;;;;;1.50;66.94;101621.00;4993366;28;20574;-75
2022/04/02 02:06:22;;;;;;;6.13;2.50;;;;;;;1.50;67.23;101619.34;4993380;28;20178;-75
2022/04/02 02:08:49;;;;;;;6.10;2.50;;;;;;;1.51;66.63;101620.25;4996609;28;20182;-75
2022/04/02 02:11:32;;;;;;;4.80;2.23;;;;;;;1.49;67.48;101619.25;5012418;28;20182;-76
2022/04/02 02:14:12;;;;;;;6.00;2.40;;;;;;;1.45;68.04;101618.19;5012678;28;20213;-76
2022/04/02 02:16:41;;;;;;;4.43;2.00;;;;;;;1.44;67.66;101615.53;5012385;28;20330;-76
2022/04/02 02:19:07;;;;;;;4.90;2.77;;;;;;;1.44;67.93;101611.38;5012328;28;20316;-77
2022/04/02 02:21:33;;;;;;;2.73;2.20;;;;;;;1.43;68.05;101616.31;4995703;28;20222;-74
2022/04/02 02:23:59;;;;;;;5.13;2.50;;;;;;;1.46;67.82;101619.06;5010840;28;20191;-76
2022/04/02 02:26:24;;;;;;;3.10;2.23;;;;;;;1.46;68.08;101624.09;4992928;28;20191;-76
2022/04/02 02:28:50;;;;;;;4.40;2.43;;;;;;;1.44;68.17;101618.94;4992570;28;20194;-76
2022/04/02 02:31:24;;;;;;;4.17;2.43;;;;;;;1.42;67.64;101614.56;5007920;28;20178;-76
2022/04/02 02:36:34;;;;;;;3.87;2.37;;;;;;;1.38;68.24;101618.50;5009409;28;20187;-76
2022/04/02 02:39:04;;;;;;;3.00;2.33;;;;;;;1.36;68.35;101626.75;4996388;28;20183;-76
2022/04/02 02:41:34;;;;;;;4.53;2.20;;;;;;;1.36;68.57;101619.19;4992578;28;20218;-76
2022/04/02 02:44:04;;;;;;;6.30;2.33;;;;;;;1.34;69.19;101621.63;4976962;28;20229;-76
2022/04/02 02:46:38;;;;;;;3.50;2.37;;;;;;;1.34;68.53;101618.22;4996186;28;20182;-76
2022/04/02 02:49:09;;;;;;;2.43;2.00;;;;;;;1.33;69.18;101621.53;5011804;28;20199;-76
2022/04/02 02:51:37;;;;;;;5.43;2.30;;;;;;;1.28;69.56;101623.72;4994531;28;20578;-77
2022/04/02 02:54:04;;;;;;;4.53;2.10;;;;;;;1.23;69.36;101625.03;4993776;28;20183;-76
2022/04/02 02:56:29;;;;;;;5.40;2.70;;;;;;;1.21;69.17;101616.50;5004604;28;20190;-76
2022/04/02 02:58:54;;;;;;;4.23;2.90;;;;;;;1.20;68.70;101621.44;5029206;28;20754;-76
2022/04/02 03:01:23;;;;;;;5.67;3.40;;;;;;;1.14;69.45;101631.97;4997257;28;20191;-75
2022/04/02 03:03:51;;;;;;;4.43;3.10;;;;;;;1.11;70.23;101624.22;4992596;28;20600;-75
2022/04/02 03:06:18;;;;;;;5.90;3.07;;;;;;;1.12;70.20;101628.50;4992312;28;20186;-75
2022/04/02 03:08:45;;;;;;;4.50;2.90;;;;;;;1.08;70.33;101624.00;5002450;28;20819;-76
2022/04/02 03:11:13;;;;;;;4.53;2.67;;;;;;;1.12;70.32;101637.69;5011643;28;20269;-76
2022/04/02 03:13:39;;;;;;;4.90;2.43;;;;;;;1.11;71.26;101625.84;5011521;28;20300;-76
2022/04/02 03:16:07;;;;;;;3.80;2.33;;;;;;;1.15;70.66;101636.25;5011775;28;20273;-76
2022/04/02 03:18:38;;;;;;;4.23;2.63;;;;;;;1.13;71.45;101630.22;5019349;28;20575;-76
2022/04/02 03:21:07;;;;;;;4.47;2.90;;;;;;;1.13;70.62;101627.72;4993378;28;20199;-76
2022/04/02 03:23:33;;;;;;;4.47;2.87;;;;;;;1.08;71.61;101628.16;5011901;28;20225;-76
2022/04/02 03:26:00;;;;;;;5.97;3.20;;;;;;;1.09;71.59;101632.47;5019850;28;20194;-76
2022/04/02 03:28:25;;;;;;;4.90;3.10;;;;;;;1.09;72.35;101622.38;5029383;28;20224;-76
2022/04/02 03:30:50;;;;;;;6.70;3.33;;;;;;;1.11;71.42;101630.91;5011236;28;20190;-76
2022/04/02 03:33:16;;;;;;;4.23;2.77;;;;;;;1.10;72.00;101630.00;5011663;28;20301;-76
2022/04/02 03:35:43;;;;;;;4.17;2.77;;;;;;;1.13;72.72;101634.38;5011681;28;20182;-76
2022/04/02 03:38:09;;;;;;;4.97;2.80;;;;;;;1.14;73.11;101628.59;5002913;28;20301;-75
2022/04/02 03:40:35;;;;;;;4.23;2.50;;;;;;;1.14;73.11;101629.47;5007720;28;20194;-76
2022/04/02 03:43:01;;;;;;;3.50;2.63;;;;;;;1.19;73.11;101634.84;4991841;28;20222;-76
2022/04/02 03:45:32;;;;;;;6.97;3.50;;;;;;;1.18;73.07;101639.00;4991723;28;20213;-74
2022/04/02 03:47:57;;;;;;;5.00;3.40;;;;;;;1.17;74.50;101632.19;4979659;28;20206;-77
2022/04/02 03:50:23;;;;;;;6.03;3.33;;;;;;;1.18;74.43;101643.16;5006676;28;20817;-76
2022/04/02 03:52:55;;;;;;;4.30;3.30;;;;;;;1.20;74.84;101641.63;5015044;28;20202;-76
2022/04/02 03:55:25;;;;;;;4.90;3.47;;;;;;;1.15;75.23;101642.97;4999552;28;20197;-76
2022/04/02 03:57:52;;;;;;;6.07;3.17;;;;;;;1.15;75.65;101640.44;5014998;28;20202;-74
2022/04/02 04:00:20;;;;;;;6.23;3.30;;;;;;;1.18;75.21;101644.03;5014522;28;20197;-74
2022/04/02 04:02:54;;;;;;;6.33;3.23;;;;;;;1.19;75.40;101645.78;5013669;28;20212;-74
2022/04/02 04:05:28;;;;;;;4.00;3.20;;;;;;;1.18;75.07;101650.72;5016214;28;20590;-74
2022/04/02 04:07:54;;;;;;;6.83;3.30;;;;;;;1.20;75.33;101645.03;4998350;28;20329;-76
2022/04/02 04:10:21;;;;;;;6.00;3.50;;;;;;;1.21;76.14;101651.81;5014799;28;20821;-76
2022/04/02 04:12:49;;;;;;;7.67;4.23;;;;;;;1.22;76.30;101648.53;5012225;28;20205;-74
2022/04/02 04:15:17;;;;;;;7.30;3.70;;;;;;;1.23;76.79;101652.78;4995101;28;20187;-75
2022/04/02 04:17:43;;;;;;;7.00;3.90;;;;;;;1.24;76.47;101657.06;4988371;28;20207;-74
2022/04/02 04:20:11;;;;;;;5.43;4.30;;;;;;;1.25;76.96;101646.22;5014210;28;20209;-74
2022/04/02 04:22:37;;;;;;;8.40;4.00;;;;;;;1.28;77.49;101658.16;5014616;28;20206;-74
2022/04/02 04:25:05;;;;;;;6.07;4.20;;;;;;;1.31;77.41;101660.88;5015040;28;20570;-74
2022/04/02 04:27:32;;;;;;;9.33;4.37;;;;;;;1.33;77.74;101662.72;5015329;28;20562;-74
2022/04/02 04:29:58;;;;;;;7.30;4.20;;;;;;;1.33;77.01;101661.88;5006125;28;20217;-76
2022/04/02 04:32:24;;;;;;;5.93;4.43;;;;;;;1.33;77.50;101677.88;4994905;28;20261;-74
2022/04/02 04:34:49;;;;;;;8.37;4.37;;;;;;;1.32;77.51;101673.59;4994999;28;20183;-74
2022/04/02 04:37:14;;;;;;;6.73;3.80;;;;;;;1.30;78.35;101672.63;5030307;28;20277;-76
2022/04/02 04:39:40;;;;;;;7.00;4.87;;;;;;;1.36;78.06;101677.19;5014217;28;20597;-75
2022/04/02 04:42:06;;;;;;;7.73;4.13;;;;;;;1.33;78.16;101675.34;5014415;28;20229;-74
2022/04/02 04:44:34;;;;;;;7.00;4.10;;;;;;;1.34;77.40;101679.63;5014161;28;20178;-74
2022/04/02 04:46:59;;;;;;;6.80;4.47;;;;;;;1.36;78.10;101683.13;5001929;28;20683;-74
2022/04/02 04:49:26;;;;;;;5.33;4.20;;;;;;;1.36;78.47;101679.72;4994497;28;20209;-74
2022/04/02 04:51:58;;;;;;;8.87;4.50;;;;;;;1.38;78.16;101689.13;5027354;28;20737;-74
2022/04/02 04:54:24;;;;;;;7.00;4.20;;;;;;;1.40;78.32;101691.78;4994573;28;20273;-74
2022/04/02 04:56:50;;;;;;;9.60;4.23;;;;;;;1.39;78.20;101693.44;5027323;28;20663;-74
2022/04/02 04:59:20;;;;;;;7.93;3.70;;;;;;;1.39;78.06;101697.59;4994109;28;20558;-74
2022/04/02 05:01:47;;;;;;;5.83;4.17;;;;;;;1.39;77.25;101705.16;4993106;28;20203;-74
2022/04/02 05:04:13;;;;;;;7.00;4.00;;;;;;;1.42;77.24;101703.72;5027217;28;20186;-74
2022/04/02 05:06:43;;;;;;;6.87;3.83;;;;;;;1.41;77.07;101707.03;4994393;28;20674;-74
2022/04/02 05:09:12;;;;;;;5.63;3.53;;;;;;;1.41;76.73;101704.50;4994329;28;20209;-74
2022/04/02 05:11:40;;;;;;;6.90;3.67;;;;;;;1.41;77.22;101708.66;4994575;28;20179;-74
2022/04/02 05:14:08;;;;;;;5.07;3.27;;;;;;;1.43;76.43;101709.66;4994465;28;20543;-74
2022/04/02 05:16:35;;;;;;;5.27;3.47;;;;;;;1.45;76.20;101710.63;4994248;28;20183;-74
2022/04/02 05:19:03;;;;;;;8.00;4.07;;;;;;;1.45;75.92;101714.03;4994002;28;20649;-74
2022/04/02 05:21:32;;;;;;;10.37;3.50;;;;;;;1.47;75.85;101709.97;4994055;28;20190;-74
2022/04/02 05:23:58;;;;;;;5.50;3.10;;;;;;;1.47;75.96;101712.47;5011890;28;20183;-74
2022/04/02 05:26:24;;;;;;;5.03;3.20;;;;;;;1.49;75.16;101716.00;4994075;28;20938;-74
2022/04/02 05:28:50;;;;;;;5.60;3.23;;;;;;;1.53;75.21;101720.50;4993774;28;20216;-74
2022/04/02 05:31:16;;;;;;;4.43;3.40;;;;;;;1.55;75.12;101715.53;4994037;28;20187;-74
2022/04/02 05:33:42;;;;;;;4.93;3.33;;;;;;;1.59;74.90;101720.00;4993990;28;20589;-74
2022/04/02 05:36:08;;;;;;;4.67;3.07;;;;;;;1.60;74.73;101724.31;5011452;28;20707;-75
2022/04/02 05:38:33;;;;;;;5.57;3.07;;;;;;;1.61;75.61;101726.91;4993782;28;20357;-74
2022/04/02 05:40:59;;;;;;;5.90;3.43;;;;;;;1.62;75.04;101730.34;4993956;28;20270;-74
2022/04/02 05:43:24;;;;;;;3.33;2.80;;;;;;;1.67;74.92;101729.00;4993302;28;20810;-75
2022/04/02 05:45:50;;;;;;;5.23;3.23;;;;;;;1.68;74.30;101731.63;5026697;28;20206;-74
2022/04/02 05:48:17;;;;;;;5.07;3.33;;;;;;;1.72;73.93;101740.28;5011272;28;20195;-74
2022/04/02 05:50:43;;;;;;;4.07;2.70;;;;;;;1.68;74.36;101744.25;5010960;28;20203;-74
2022/04/02 05:53:08;;;;;;;4.67;2.73;;;;;;;1.74;74.25;101747.19;5010959;28;20210;-74
2022/04/02 05:55:35;;;;;;;5.20;3.20;;;;;;;1.71;73.98;101752.03;4993078;28;20293;-75
2022/04/02 05:58:00;;;;;;;4.17;2.93;;;;;;;1.81;74.17;101758.56;5010896;28;20226;-74
2022/04/02 06:00:27;;;;;;;6.27;2.63;;;;;;;1.85;73.58;101755.50;4993208;28;20191;-74
2022/04/02 06:02:53;;;;;;;4.60;2.67;;;;;;;1.86;73.35;101762.28;5026045;28;20605;-74
2022/04/02 06:05:18;;;;;;;4.33;2.77;;;;;;;1.92;72.77;101771.16;5010991;28;20218;-76
2022/04/02 06:07:44;;;;;;;4.07;2.50;;;;;;;1.98;72.59;101773.22;4993119;28;20183;-74
2022/04/02 06:10:10;;;;;;;4.97;2.77;;;;;;;2.05;72.86;101765.28;5010910;28;20195;-72
2022/04/02 06:12:37;;;;;;;3.53;2.77;;;;;;;2.15;71.82;101766.00;5010866;28;20237;-73
2022/04/02 06:15:03;;;;;;;5.83;2.50;;;;;;;2.20;72.08;101773.91;5012197;28;20210;-73
2022/04/02 06:17:29;;;;;;;5.23;2.70;;;;;;;2.26;71.09;101781.91;5025621;28;20241;-74
2022/04/02 06:19:54;;;;;;;3.00;2.40;;;;;;;2.26;70.61;101781.91;5010192;28;20693;-74
2022/04/02 06:22:19;;;;;;;4.13;2.40;;;;;;;2.34;70.52;101783.28;5010373;28;20212;-74
2022/04/02 06:24:45;;;;;;;3.70;2.40;;;;;;;2.39;70.55;101776.88;4992531;28;20178;-74
2022/04/02 06:27:10;;;;;;;3.43;2.23;;;;;;;2.45;69.84;101783.22;5010317;28;20183;-76
2022/04/02 06:29:35;;;;;;;4.37;2.40;;;;;;;2.53;69.14;101786.25;5010176;28;20686;-76
2022/04/02 06:32:01;;;;;;;4.93;2.50;;;;;;;2.69;68.76;101789.00;5010561;28;20238;-76
2022/04/02 06:34:26;;;;;;;4.13;2.50;;;;;;;2.80;67.75;101791.44;5008883;28;20198;-76
2022/04/02 06:36:51;;;;;;;2.57;2.07;;;;;;;2.87;67.68;101788.56;5000736;28;20178;-76
2022/04/02 06:39:17;;;;;;;4.17;2.60;;;;;;;2.91;67.45;101794.69;5029572;28;20190;-75
2022/04/02 06:41:43;;;;;;;5.87;2.17;;;;;;;3.00;67.24;101788.59;5029581;28;20197;-74
2022/04/02 06:44:09;;;;;;;5.13;2.27;;;;;;;3.19;66.60;101780.50;5029829;28;20182;-74
2022/04/02 06:46:37;;;;;;;3.30;1.97;;;;;;;3.29;66.06;101790.41;5029820;28;20190;-74
2022/04/02 06:49:03;;;;;;;3.57;2.00;;;;;;;3.38;66.09;101788.47;5027814;28;20186;-74
2022/04/02 06:51:28;;;;;;;4.40;1.97;;;;;;;3.61;65.09;101794.19;5009767;28;20214;-74
2022/04/02 06:53:53;;;;;;;3.73;1.77;;;;;;;3.72;64.15;101797.38;5009985;28;20186;-73
2022/04/02 06:56:19;;;;;;;3.53;2.10;;;;;;;4.01;63.64;101805.09;5010088;28;20766;-74
2022/04/02 06:58:45;;;;;;;4.37;1.93;;;;;;;4.01;62.34;101810.16;4992554;28;20207;-75
2022/04/02 07:01:10;;;;;;;3.67;1.60;;;;;;;4.20;61.76;101796.16;5010303;28;20274;-74
2022/04/02 07:03:37;;;;;;;2.70;1.60;;;;;;;4.46;60.81;101797.69;4992797;28;20213;-74
2022/04/02 07:06:03;;;;;;;4.93;1.80;;;;;;;4.60;61.62;101799.38;5008722;28;20241;-76
2022/04/02 07:08:28;;;;;;;4.47;2.23;;;;;;;4.72;60.66;101798.44;5039202;28;20178;-74
2022/04/02 07:10:53;;;;;;;2.57;1.70;;;;;;;4.90;60.62;101803.66;5023647;28;20186;-75
2022/04/02 07:13:19;;;;;;;3.90;1.80;;;;;;;5.04;59.17;101800.25;5035245;28;20256;-75
2022/04/02 07:15:45;;;;;;;2.93;1.83;;;;;;;5.20;57.77;101801.19;5022972;28;20190;-75
2022/04/02 07:18:10;;;;;;;5.07;1.67;;;;;;;5.32;58.48;101808.63;4999240;28;20304;-75
2022/04/02 07:20:39;;;;;;;2.33;1.67;;;;;;;5.55;56.77;101803.13;4997381;28;20229;-75
2022/04/02 07:23:09;;;;;;;1.93;1.40;;;;;;;5.78;57.60;101805.25;5007873;28;20232;-75
2022/04/02 07:25:38;;;;;;;3.00;1.60;;;;;;;5.56;56.71;101808.31;5037839;28;20646;-75
2022/04/02 07:28:04;;;;;;;10.67;4.30;;;;;;;5.70;56.22;101815.00;5039234;28;20182;-75
2022/04/02 07:30:32;;;;;;;4.57;2.57;;;;;;;5.79;55.81;101812.97;5039437;28;20884;-75
2022/04/02 07:32:57;;;;;;;5.53;1.80;;;;;;;5.61;55.82;101809.44;5039494;28;20205;-75
2022/04/02 07:35:27;;;;;;;2.03;1.40;;;;;;;6.00;55.56;101815.81;5041396;28;20186;-75
2022/04/02 07:38:35;;;;;;;2.13;1.47;;;;;;;6.12;53.57;101811.38;5041046;28;20244;-75
2022/04/02 07:41:22;;;;;;;3.57;2.20;;;;;;;6.40;54.92;101817.94;5018613;28;20300;-73
2022/04/02 07:43:55;;;;;;;4.37;2.40;;;;;;;6.51;54.98;101814.31;5037060;28;20908;-72
2022/04/02 07:46:28;;;;;;;3.07;1.70;;;;;;;6.85;53.07;101810.09;5017274;28;20182;-72
2022/04/02 07:48:56;;;;;;;6.57;2.40;;;;;;;7.05;52.50;101821.28;5014493;28;20740;-73
2022/04/02 07:51:38;;;;;;;2.90;1.93;;;;;;;6.51;51.00;101828.69;4997676;28;20183;-75
2022/04/02 07:54:06;;;;;;;2.50;1.50;;;;;;;6.51;51.19;101819.41;4985073;28;20333;-76
2022/04/02 07:56:43;;;;;;;3.13;1.90;;;;;;;6.77;51.62;101811.38;4984899;28;20197;-75
2022/04/02 07:59:35;;;;;;;2.73;1.93;;;;;;;6.78;51.22;101818.22;4999322;28;20226;-77
2022/04/02 08:02:36;;;;;;;3.30;2.00;;;;;;;6.60;50.95;101829.16;5015565;28;20217;-76
2022/04/02 08:04:51;;;;;;;2.97;2.00;;;;;;;6.28;51.13;101827.50;5039609;28;20198;-76
2022/04/02 08:07:16;;;;;;;3.53;2.83;;;;;;;6.25;51.82;101834.97;5029127;28;20257;-75
2022/04/02 08:09:43;;;;;;;2.47;2.27;;;;;;;6.32;52.11;101837.06;5025976;28;20199;-75
2022/04/02 08:12:11;;;;;;;2.77;2.20;;;;;;;6.46;52.49;101836.09;5001171;28;20214;-75
2022/04/02 08:14:39;;;;;;;3.73;1.80;;;;;;;6.48;51.40;101834.50;5002454;28;20201;-75
2022/04/02 08:17:07;;;;;;;2.90;2.27;;;;;;;6.54;50.36;101837.34;5040974;28;20252;-75
2022/04/02 08:19:33;;;;;;;3.87;1.80;;;;;;;6.77;49.99;101839.38;5040723;28;20320;-77
2022/04/02 08:22:09;;;;;;;4.00;2.03;;;;;;;7.11;49.03;101834.28;5042210;28;20232;-76
2022/04/02 08:25:11;;;;;;;3.70;2.50;;;;;;;7.19;48.06;101838.09;5008454;28;20593;-76
2022/04/02 08:28:22;;;;;;;5.00;1.90;;;;;;;6.53;48.12;101843.22;5016392;28;20196;-76
2022/04/02 08:31:23;;;;;;;4.43;3.20;;;;;;;6.29;50.35;101847.06;4999156;28;20291;-75
2022/04/02 08:34:30;;;;;;;2.83;1.63;;;;;;;6.26;49.58;101843.50;4984337;28;20215;-76
2022/04/02 08:37:11;;;;;;;4.90;2.90;;;;;;;6.33;50.59;101846.44;5001501;28;20202;-75
2022/04/02 08:40:12;;;;;;;3.30;1.90;;;;;;;6.27;50.18;101851.16;5004920;28;20187;-77
2022/04/02 08:44:00;;;;;;;2.77;1.33;;;;;;;5.98;50.65;101856.38;5035095;28;20741;-77
2022/04/02 08:47:28;;;;;;;3.20;1.70;;;;;;;5.90;51.12;101862.72;5023258;28;20201;-76
2022/04/02 08:50:24;;;;;;;3.70;2.00;;;;;;;6.28;50.97;101855.50;5024442;28;20195;-77
2022/04/02 08:53:11;;;;;;;3.37;1.83;;;;;;;6.89;49.22;101852.72;4985317;28;20207;-77
2022/04/02 08:55:45;;;;;;;1.93;1.57;;;;;;;6.64;49.98;101859.06;5001325;28;20317;-76
2022/04/02 08:58:24;;;;;;;2.87;1.60;;;;;;;6.29;51.26;101867.41;5010816;28;20214;-75
2022/04/02 09:01:07;;;;;;;4.13;2.00;;;;;;;6.34;49.16;101860.88;5032633;28;20653;-76
2022/04/02 09:03:58;;;;;;;1.60;1.50;;;;;;;6.93;47.58;101864.81;5030318;28;20627;-76
2022/04/02 09:07:01;;;;;;;4.23;1.47;;;;;;;7.66;44.56;101853.97;4999060;28;20205;-75
2022/04/02 09:09:51;;;;;;;2.90;1.43;;;;;;;8.38;44.75;101857.38;5017598;28;20187;-76
2022/04/02 09:12:36;;;;;;;2.97;1.73;;;;;;;7.65;44.14;101862.44;4998849;28;20223;-76
2022/04/02 09:15:24;;;;;;;2.47;1.30;;;;;;;7.26;44.94;101873.22;5000328;28;20269;-76
2022/04/02 09:18:02;;;;;;;1.90;1.17;;;;;;;7.24;42.12;101878.25;5014224;28;20195;-75
2022/04/02 09:21:07;;;;;;;2.63;1.10;;;;;;;6.62;41.98;101878.44;4990470;28;20214;-76
2022/04/02 09:24:00;;;;;;;2.07;1.33;;;;;;;6.40;42.30;101883.22;5018226;28;20321;-75
2022/04/02 09:26:45;;;;;;;1.43;1.03;;;;;;;8.01;39.90;101872.63;5006174;28;20198;-75
2022/04/02 09:29:27;;;;;;;1.57;1.30;;;;;;;8.96;38.13;101859.03;5028184;28;20174;-75
2022/04/02 09:31:56;;;;;;;1.43;1.33;;;;;;;9.22;37.79;101868.69;5019152;28;20202;-76
2022/04/02 09:35:01;;;;;;;2.77;1.40;;;;;;;10.21;35.99;101864.97;5048647;28;20194;-76
2022/04/02 09:37:54;;;;;;;1.30;1.00;;;;;;;12.83;31.05;101841.84;5049183;28;20210;-76
2022/04/02 09:40:29;;;;;;;2.07;1.00;;;;;;;10.07;33.45;101861.91;5017026;28;20264;-76
2022/04/02 09:43:03;;;;;;;4.13;1.30;;;;;;;13.75;30.78;101846.72;5001334;28;20760;-76
2022/04/02 09:45:51;;;;;;;2.37;1.30;;;;;;;11.55;31.60;101852.56;5034644;28;20640;-76
2022/04/02 09:48:27;;;;;;;1.53;1.30;;;;;;;9.19;36.39;101877.09;5034030;28;20255;-75
2022/04/02 09:50:56;;;;;;;2.83;1.40;;;;;;;17.37;25.63;101837.81;5032593;28;20193;-76
2022/04/02 09:53:32;;;;;;;3.07;1.20;;;;;;;19.44;23.47;101826.50;5033463;28;20213;-76
2022/04/02 09:56:22;;;;;;;1.90;1.60;;;;;;;20.76;21.41;101826.06;5017073;28;20182;-76
2022/04/02 09:59:06;;;;;;;5.17;4.10;;;;;;;21.56;21.48;101825.44;5013332;28;20694;-76
2022/04/02 10:01:47;;;;;;;4.40;3.03;;;;;;;19.62;23.99;101823.03;5012647;28;20234;-75
2022/04/02 10:04:37;;;;;;;3.83;2.57;;;;;;;16.28;27.23;101843.56;5015583;28;20206;-76
2022/04/02 10:07:04;;;;;;;2.73;2.43;;;;;;;15.26;28.29;101849.78;5032508;28;20277;-76
2022/04/02 10:09:40;;;;;;;2.17;1.80;;;;;;;13.40;29.90;101830.44;5016610;28;20698;-76
2022/04/02 10:12:07;;;;;;;2.63;1.20;;;;;;;12.55;31.00;101865.06;5028274;28;20690;-76
2022/04/02 10:14:34;;;;;;;3.60;2.60;;;;;;;10.72;32.21;101859.16;5019014;28;20179;-76
2022/04/02 10:17:07;;;;;;;3.60;3.07;;;;;;;10.27;34.55;101872.91;5009408;28;20285;-76
2022/04/02 10:19:39;;;;;;;6.43;2.53;;;;;;;10.77;33.41;101870.44;4996639;28;20190;-76
2022/04/02 10:22:07;;;;;;;3.73;3.00;;;;;;;11.72;32.73;101856.59;5013975;28;20241;-76
2022/04/02 10:24:37;;;;;;;3.63;1.80;;;;;;;10.94;33.46;101857.41;5031547;28;20189;-76
2022/04/02 10:27:04;;;;;;;2.53;1.20;;;;;;;11.13;33.92;101852.06;5014203;28;20691;-76
2022/04/02 10:30:00;;;;;;;2.03;1.37;;;;;;;12.06;31.39;101847.38;5031450;28;20221;-76
2022/04/02 10:32:49;;;;;;;2.63;1.30;;;;;;;11.95;32.28;101841.06;5013642;28;20293;-75
2022/04/02 10:35:15;;;;;;;3.80;1.73;;;;;;;11.42;32.79;101850.44;5031645;28;20233;-75
2022/04/02 10:37:42;;;;;;;2.47;1.30;;;;;;;11.83;31.89;101838.13;5030296;28;20202;-75
2022/04/02 10:40:10;;;;;;;3.07;1.30;;;;;;;12.84;32.26;101831.59;5029766;28;20190;-75
2022/04/02 10:42:51;;;;;;;1.80;1.30;;;;;;;11.56;31.83;101847.50;5029339;28;20221;-76
2022/04/02 10:45:19;;;;;;;1.70;1.20;;;;;;;10.76;33.14;101845.66;5030458;28;20631;-75
2022/04/02 10:48:10;;;;;;;5.00;1.27;;;;;;;10.25;33.05;101856.59;5031207;28;20186;-76
2022/04/02 10:50:42;;;;;;;2.00;1.23;;;;;;;9.55;32.34;101858.13;5010642;28;20214;-77
2022/04/02 10:53:13;;;;;;;2.07;1.10;;;;;;;10.44;31.25;101859.00;5012084;28;20203;-77
2022/04/02 10:55:43;;;;;;;1.63;1.00;;;;;;;10.62;30.97;101855.41;5012278;28;20253;-77
2022/04/02 10:58:11;;;;;;;1.63;0.97;;;;;;;11.80;29.89;101852.56;4994204;28;20219;-77
2022/04/02 11:00:39;;;;;;;1.83;1.33;;;;;;;11.82;29.77;101843.19;5005008;28;20201;-76
2022/04/02 11:03:06;;;;;;;2.13;1.10;;;;;;;11.58;30.47;101844.97;4996569;28;20213;-77
2022/04/02 11:05:36;;;;;;;1.73;1.40;;;;;;;11.80;30.22;101853.41;5029037;28;20182;-77
2022/04/02 11:08:10;;;;;;;3.80;0.80;;;;;;;11.69;29.34;101856.47;5033517;28;20237;-77
2022/04/02 11:10:36;;;;;;;1.97;1.10;;;;;;;12.54;27.88;101855.63;4998510;28;20241;-78
2022/04/02 11:13:04;;;;;;;1.50;1.00;;;;;;;12.79;28.05;101851.19;5007319;28;20205;-76
2022/04/02 11:15:36;;;;;;;2.50;1.50;;;;;;;12.73;28.15;101845.84;5000141;28;20198;-78
2022/04/02 11:18:02;;;;;;;2.40;1.10;;;;;;;12.89;28.88;101854.84;4994839;28;20210;-77
2022/04/02 11:20:32;;;;;;;2.47;1.20;;;;;;;13.90;28.79;101845.34;5006916;28;20197;-78
2022/04/02 11:23:09;;;;;;;1.20;1.10;;;;;;;13.60;30.39;101841.22;5027112;28;20198;-78
2022/04/02 11:25:36;;;;;;;3.00;1.60;;;;;;;12.85;30.80;101842.72;5012316;28;20276;-78
2022/04/02 11:28:10;;;;;;;1.93;1.37;;;;;;;12.17;30.53;101847.69;5021439;28;20373;-77
2022/04/02 11:30:49;;;;;;;1.43;0.90;;;;;;;11.63;30.04;101849.47;5007930;28;20553;-78
2022/04/02 11:33:25;;;;;;;1.80;1.20;;;;;;;13.33;28.17;101848.28;5014074;28;20225;-79
2022/04/02 11:35:59;;;;;;;1.43;1.20;;;;;;;13.14;27.63;101841.81;5013128;28;20197;-78
2022/04/02 11:38:45;;;;;;;2.33;1.60;;;;;;;13.41;28.02;101839.06;5011585;28;20579;-77
2022/04/02 11:41:22;;;;;;;2.40;1.50;;;;;;;13.76;28.17;101840.75;5019878;28;20277;-78
2022/04/02 11:44:04;;;;;;;1.77;1.30;;;;;;;13.34;29.09;101843.19;5030299;28;20717;-78
2022/04/02 11:46:49;;;;;;;2.40;1.40;;;;;;;12.99;29.72;101846.59;4995900;28;20187;-78
2022/04/02 11:49:25;;;;;;;2.33;1.70;;;;;;;12.34;29.65;101855.03;5008833;28;20698;-78
2022/04/02 11:52:05;;;;;;;4.00;2.70;;;;;;;12.23;28.67;101853.88;5026235;28;20644;-78
2022/04/02 11:54:31;;;;;;;2.23;1.50;;;;;;;12.62;28.80;101854.97;5029200;28;20677;-77
2022/04/02 11:57:13;;;;;;;5.73;3.70;;;;;;;13.07;29.09;101841.66;4978982;28;20187;-77